createdAt,value
2022-09-28T00:00:36.412Z,97986.30
2022-09-28T00:02:04.095Z,97986.20
2022-09-28T00:03:15.931Z,97987.11
2022-09-28T00:04:34.062Z,97989.51
2022-09-28T00:05:41.820Z,97990.10
2022-09-28T00:06:52.397Z,97990.32
2022-09-28T00:08:00.688Z,97992.38
2022-09-28T00:09:09.719Z,97988.38
2022-09-28T00:10:21.052Z,97989.16
2022-09-28T00:11:29.810Z,97992.66
2022-09-28T00:12:37.154Z,97994.31
2022-09-28T00:13:45.269Z,97998.02
2022-09-28T00:14:55.633Z,98002.02
2022-09-28T00:16:11.460Z,98003.82
2022-09-28T00:17:24.596Z,98005.20
2022-09-28T00:18:32.380Z,98006.20
2022-09-28T00:19:42.512Z,98000.81
2022-09-28T00:20:50.605Z,98006.96
2022-09-28T00:22:00.448Z,98003.75
2022-09-28T00:23:12.213Z,98010.33
2022-09-28T00:24:27.516Z,98006.66
2022-09-28T00:25:39.397Z,98006.07
2022-09-28T00:26:50.768Z,98004.83
2022-09-28T00:28:00.062Z,98004.61
2022-09-28T00:29:08.282Z,98002.98
2022-09-28T00:30:18.185Z,98004.50
2022-09-28T00:31:28.527Z,98003.48
2022-09-28T00:32:37.121Z,98007.73
2022-09-28T00:33:46.234Z,98005.71
2022-09-28T00:34:54.213Z,98004.96
2022-09-28T00:36:02.085Z,98003.79
2022-09-28T00:37:12.084Z,98006.28
2022-09-28T00:38:21.842Z,98010.42
2022-09-28T00:39:37.461Z,98005.93
2022-09-28T00:40:44.870Z,98006.17
2022-09-28T00:41:53.627Z,98005.52
2022-09-28T00:43:01.687Z,98004.58
2022-09-28T00:44:35.450Z,98003.65
2022-09-28T00:45:43.673Z,98008.19
2022-09-28T00:47:16.624Z,98006.07
2022-09-28T00:48:24.480Z,98009.31
2022-09-28T00:49:35.312Z,98007.67
2022-09-28T00:50:42.628Z,98004.95
2022-09-28T00:51:49.967Z,98012.73
2022-09-28T00:53:12.773Z,98014.14
2022-09-28T00:54:20.700Z,98012.76
2022-09-28T00:55:51.212Z,98016.84
2022-09-28T00:56:58.739Z,98019.02
2022-09-28T00:58:07.392Z,98016.89
2022-09-28T00:59:16.914Z,98017.73
2022-09-28T01:00:25.439Z,98018.80
2022-09-28T01:01:34.729Z,98017.54
2022-09-28T01:02:43.178Z,98020.70
2022-09-28T01:03:51.962Z,98027.73
2022-09-28T01:05:00.280Z,98026.73
2022-09-28T01:06:08.114Z,98029.84
2022-09-28T01:07:16.088Z,98032.07
2022-09-28T01:08:24.696Z,98030.50
2022-09-28T01:09:33.658Z,98033.96
2022-09-28T01:10:42.153Z,98032.48
2022-09-28T01:11:54.049Z,98036.67
2022-09-28T01:13:02.882Z,98039.55
2022-09-28T01:14:14.040Z,98040.84
2022-09-28T01:15:23.072Z,98039.98
2022-09-28T01:16:55.289Z,98045.05
2022-09-28T01:18:26.515Z,98048.97
2022-09-28T01:19:37.221Z,98049.14
2022-09-28T01:21:06.579Z,98052.27
2022-09-28T01:22:47.888Z,98054.11
2022-09-28T01:24:11.275Z,98057.93
2022-09-28T01:25:47.640Z,98060.45
2022-09-28T01:27:38.007Z,98063.54
2022-09-28T01:28:49.625Z,98063.73
2022-09-28T01:30:10.740Z,98069.41
2022-09-28T01:31:18.675Z,98070.42
2022-09-28T01:32:30.859Z,98075.27
2022-09-28T01:34:02.641Z,98078.07
2022-09-28T01:35:23.146Z,98079.67
2022-09-28T01:36:47.645Z,98080.55
2022-09-28T01:38:05.631Z,98084.14
2022-09-28T01:39:19.827Z,98085.55
2022-09-28T01:40:28.216Z,98086.84
2022-09-28T01:41:39.872Z,98090.55
2022-09-28T01:42:49.100Z,98085.90
2022-09-28T01:44:00.805Z,98085.80
2022-09-28T01:45:12.202Z,98084.95
2022-09-28T01:46:22.398Z,98085.69
2022-09-28T01:47:30.002Z,98091.67
2022-09-28T01:49:05.749Z,98092.30
2022-09-28T01:50:19.418Z,98093.67
2022-09-28T01:51:36.942Z,98095.06
2022-09-28T01:53:07.136Z,98099.02
2022-09-28T01:54:22.149Z,98100.02
2022-09-28T01:55:36.537Z,98105.79
2022-09-28T01:57:15.831Z,98110.03
2022-09-28T01:58:35.103Z,98108.42
2022-09-28T01:59:45.142Z,98111.80
2022-09-28T02:00:57.564Z,98111.82
2022-09-28T02:02:14.363Z,98117.37
2022-09-28T02:03:25.604Z,98119.30
2022-09-28T02:04:45.153Z,98119.35
2022-09-28T02:06:05.486Z,98119.90
2022-09-28T02:07:36.984Z,98119.75
2022-09-28T02:08:50.466Z,98126.36
2022-09-28T02:10:01.979Z,98126.87
2022-09-28T02:11:21.882Z,98128.23
2022-09-28T02:12:37.655Z,98123.67
2022-09-28T02:14:05.050Z,98126.67
2022-09-28T02:15:36.703Z,98131.02
2022-09-28T02:16:51.619Z,98130.90
2022-09-28T02:18:04.474Z,98131.86
2022-09-28T02:19:19.327Z,98131.90
2022-09-28T02:20:27.244Z,98131.83
2022-09-28T02:21:46.327Z,98136.04
2022-09-28T02:22:55.836Z,98136.08
2022-09-28T02:24:05.763Z,98134.48
2022-09-28T02:25:13.818Z,98141.31
2022-09-28T02:26:21.652Z,98140.31
2022-09-28T02:27:53.134Z,98142.39
2022-09-28T02:29:03.277Z,98146.88
2022-09-28T02:30:11.820Z,98143.94
2022-09-28T02:31:19.652Z,98148.64
2022-09-28T02:32:27.869Z,98146.52
2022-09-28T02:33:39.623Z,98149.21
2022-09-28T02:34:47.264Z,98151.13
2022-09-28T02:35:54.980Z,98154.64
2022-09-28T02:37:03.657Z,98157.21
2022-09-28T02:38:16.115Z,98157.85
2022-09-28T02:39:24.728Z,98158.35
2022-09-28T02:40:34.538Z,98164.04
2022-09-28T02:41:54.801Z,98165.89
2022-09-28T02:43:08.769Z,98169.47
2022-09-28T02:44:45.645Z,98170.94
2022-09-28T02:46:14.495Z,98173.85
2022-09-28T02:48:10.736Z,98180.14
2022-09-28T02:49:36.698Z,98185.18
2022-09-28T02:51:01.459Z,98187.55
2022-09-28T02:52:24.473Z,98193.41
2022-09-28T02:54:08.402Z,98198.89
2022-09-28T02:55:41.882Z,98207.52
2022-09-28T02:57:07.612Z,98210.77
2022-09-28T02:58:27.887Z,98212.05
2022-09-28T02:59:42.455Z,98215.67
2022-09-28T03:01:07.498Z,98217.88
2022-09-28T03:02:24.084Z,98217.29
2022-09-28T03:03:57.631Z,98220.66
2022-09-28T03:05:17.283Z,98224.35
2022-09-28T03:06:47.195Z,98224.16
2022-09-28T03:08:03.838Z,98227.55
2022-09-28T03:09:33.392Z,98233.31
2022-09-28T03:10:43.037Z,98230.88
2022-09-28T03:11:55.602Z,98235.89
2022-09-28T03:13:03.054Z,98237.96
2022-09-28T03:14:11.193Z,98244.21
2022-09-28T03:15:26.598Z,98245.77
2022-09-28T03:16:34.383Z,98246.98
2022-09-28T03:17:41.838Z,98250.55
2022-09-28T03:18:49.190Z,98252.19
2022-09-28T03:19:56.571Z,98251.38
2022-09-28T03:21:06.402Z,98253.80
2022-09-28T03:22:14.116Z,98252.56
2022-09-28T03:23:25.461Z,98255.66
2022-09-28T03:24:33.712Z,98256.06
2022-09-28T03:25:42.121Z,98254.36
2022-09-28T03:26:49.351Z,98259.10
2022-09-28T03:27:56.961Z,98261.73
2022-09-28T03:29:05.182Z,98263.30
2022-09-28T03:30:13.417Z,98264.08
2022-09-28T03:31:22.346Z,98265.95
2022-09-28T03:32:29.571Z,98270.09
2022-09-28T03:33:37.341Z,98270.61
2022-09-28T03:34:45.407Z,98273.77
2022-09-28T03:35:53.273Z,98271.52
2022-09-28T03:37:01.394Z,98272.78
2022-09-28T03:38:09.300Z,98272.80
2022-09-28T03:39:18.173Z,98277.54
2022-09-28T03:40:26.072Z,98282.78
2022-09-28T03:41:33.588Z,98284.55
2022-09-28T03:42:41.670Z,98289.35
2022-09-28T03:43:49.339Z,98291.62
2022-09-28T03:44:57.353Z,98293.52
2022-09-28T03:46:05.659Z,98291.25
2022-09-28T03:47:19.789Z,98296.48
2022-09-28T03:48:32.405Z,98297.16
2022-09-28T03:49:42.048Z,98299.05
2022-09-28T03:50:51.188Z,98304.20
2022-09-28T03:51:59.360Z,98310.95
2022-09-28T03:53:10.945Z,98312.12
2022-09-28T03:54:18.568Z,98313.63
2022-09-28T03:55:26.205Z,98314.63
2022-09-28T03:56:53.711Z,98315.20
2022-09-28T03:58:01.313Z,98317.21
2022-09-28T03:59:32.607Z,98319.98
2022-09-28T04:00:40.694Z,98320.20
2022-09-28T04:01:58.398Z,98320.77
2022-09-28T04:03:10.252Z,98321.11
2022-09-28T04:04:18.038Z,98322.54
2022-09-28T04:05:25.952Z,98321.33
2022-09-28T04:06:33.238Z,98325.58
2022-09-28T04:07:40.691Z,98326.19
2022-09-28T04:08:48.381Z,98329.89
2022-09-28T04:09:56.555Z,98332.69
2022-09-28T04:11:10.558Z,98333.02
2022-09-28T04:12:21.749Z,98334.48
2022-09-28T04:13:29.689Z,98333.59
2022-09-28T04:14:38.234Z,98338.02
2022-09-28T04:15:45.748Z,98338.67
2022-09-28T04:16:56.113Z,98338.07
2022-09-28T04:18:06.628Z,98341.31
2022-09-28T04:19:28.350Z,98343.36
2022-09-28T04:21:15.539Z,98343.29
2022-09-28T04:22:26.155Z,98342.19
2022-09-28T04:23:33.930Z,98343.22
2022-09-28T04:24:43.405Z,98342.06
2022-09-28T04:25:54.997Z,98344.64
2022-09-28T04:27:22.897Z,98342.55
2022-09-28T04:28:49.006Z,98345.86
2022-09-28T04:29:59.738Z,98346.20
2022-09-28T04:31:12.018Z,98345.87
2022-09-28T04:32:20.038Z,98349.34
2022-09-28T04:33:27.941Z,98348.02
2022-09-28T04:34:38.767Z,98352.93
2022-09-28T04:35:50.022Z,98350.73
2022-09-28T04:36:57.511Z,98349.69
2022-09-28T04:38:05.256Z,98350.50
2022-09-28T04:39:14.105Z,98353.24
2022-09-28T04:40:24.662Z,98350.61
2022-09-28T04:41:32.958Z,98352.16
2022-09-28T04:42:43.693Z,98351.59
2022-09-28T04:43:50.838Z,98351.91
2022-09-28T04:45:00.176Z,98353.73
2022-09-28T04:46:07.799Z,98354.00
2022-09-28T04:47:23.244Z,98354.54
2022-09-28T04:48:51.306Z,98353.92
2022-09-28T04:50:18.665Z,98356.29
2022-09-28T04:51:46.437Z,98359.66
2022-09-28T04:52:56.027Z,98360.66
2022-09-28T04:54:04.813Z,98362.77
2022-09-28T04:55:17.610Z,98364.73
2022-09-28T04:56:26.207Z,98365.73
2022-09-28T04:57:38.055Z,98363.46
2022-09-28T04:58:51.735Z,98366.59
2022-09-28T05:00:02.702Z,98366.59
2022-09-28T05:01:19.225Z,98369.20
2022-09-28T05:02:37.036Z,98369.76
2022-09-28T05:04:26.131Z,98373.14
2022-09-28T05:05:53.906Z,98377.44
2022-09-28T05:07:25.790Z,98381.66
2022-09-28T05:08:35.477Z,98382.84
2022-09-28T05:09:43.832Z,98379.26
2022-09-28T05:10:56.408Z,98383.82
2022-09-28T05:12:05.496Z,98382.23
2022-09-28T05:13:16.027Z,98381.45
2022-09-28T05:14:26.264Z,98381.06
2022-09-28T05:15:36.076Z,98383.52
2022-09-28T05:16:44.432Z,98387.14
2022-09-28T05:18:17.715Z,98386.42
2022-09-28T05:19:32.032Z,98383.33
2022-09-28T05:20:43.775Z,98382.89
2022-09-28T05:21:52.125Z,98384.92
2022-09-28T05:23:04.535Z,98384.75
2022-09-28T05:24:14.429Z,98379.45
2022-09-28T05:25:26.893Z,98379.73
2022-09-28T05:26:47.925Z,98380.67
2022-09-28T05:28:00.439Z,98380.67
2022-09-28T05:29:38.370Z,98382.42
2022-09-28T05:31:06.152Z,98382.02
2022-09-28T05:32:45.574Z,98380.23
2022-09-28T05:34:10.287Z,98376.91
2022-09-28T05:35:19.851Z,98376.95
2022-09-28T05:36:29.918Z,98379.10
2022-09-28T05:37:39.437Z,98375.77
2022-09-28T05:38:47.717Z,98378.69
2022-09-28T05:39:57.146Z,98382.13
2022-09-28T05:41:07.026Z,98381.48
2022-09-28T05:42:16.757Z,98382.20
2022-09-28T05:43:26.251Z,98384.50
2022-09-28T05:44:34.087Z,98385.80
2022-09-28T05:45:43.514Z,98385.23
2022-09-28T05:46:52.203Z,98386.32
2022-09-28T05:48:01.830Z,98387.69
2022-09-28T05:49:10.621Z,98387.85
2022-09-28T05:50:20.776Z,98389.59
2022-09-28T05:51:30.215Z,98392.93
2022-09-28T05:52:38.534Z,98394.14
2022-09-28T05:53:47.701Z,98397.36
2022-09-28T05:54:57.817Z,98396.78
2022-09-28T05:56:08.035Z,98400.59
2022-09-28T05:57:20.562Z,98399.29
2022-09-28T05:58:30.330Z,98398.66
2022-09-28T05:59:39.481Z,98403.52
2022-09-28T06:00:47.532Z,98404.31
2022-09-28T06:01:56.439Z,98406.14
2022-09-28T06:03:10.086Z,98407.19
2022-09-28T06:04:18.705Z,98405.77
2022-09-28T06:05:31.638Z,98407.00
2022-09-28T06:06:40.540Z,98410.60
2022-09-28T06:07:48.916Z,98411.94
2022-09-28T06:08:57.793Z,98410.64
2022-09-28T06:10:30.844Z,98408.65
2022-09-28T06:11:41.883Z,98411.57
2022-09-28T06:12:59.893Z,98412.65
2022-09-28T06:14:09.464Z,98413.39
2022-09-28T06:15:19.776Z,98415.64
2022-09-28T06:16:28.250Z,98410.59
2022-09-28T06:17:36.978Z,98408.64
2022-09-28T06:19:15.406Z,98409.67
2022-09-28T06:20:44.777Z,98410.48
2022-09-28T06:21:59.271Z,98411.81
2022-09-28T06:23:09.382Z,98411.50
2022-09-28T06:24:18.630Z,98408.48
2022-09-28T06:25:29.580Z,98409.06
2022-09-28T06:26:38.601Z,98407.64
2022-09-28T06:27:56.125Z,98409.94
2022-09-28T06:29:05.277Z,98406.70
2022-09-28T06:30:14.423Z,98409.71
2022-09-28T06:31:26.073Z,98407.12
2022-09-28T06:32:34.983Z,98409.66
2022-09-28T06:33:44.487Z,98404.73
2022-09-28T06:34:56.283Z,98400.29
2022-09-28T06:36:08.387Z,98395.64
2022-09-28T06:37:18.011Z,98397.61
2022-09-28T06:38:29.447Z,98398.00
2022-09-28T06:39:37.477Z,98398.90
2022-09-28T06:40:45.901Z,98394.85
2022-09-28T06:41:54.435Z,98395.35
2022-09-28T06:43:14.391Z,98392.44
2022-09-28T06:45:02.413Z,98392.92
2022-09-28T06:46:27.381Z,98391.11
2022-09-28T06:48:04.045Z,98386.52
2022-09-28T06:49:21.838Z,98385.05
2022-09-28T06:50:49.916Z,98383.49
2022-09-28T06:52:09.210Z,98383.73
2022-09-28T06:53:37.549Z,98383.64
2022-09-28T06:55:14.026Z,98384.06
2022-09-28T06:56:27.302Z,98386.95
2022-09-28T06:57:39.638Z,98384.45
2022-09-28T06:58:47.730Z,98384.20
2022-09-28T06:59:55.891Z,98387.42
2022-09-28T07:01:04.273Z,98386.02
2022-09-28T07:02:25.728Z,98387.89
2022-09-28T07:04:04.203Z,98389.56
2022-09-28T07:05:31.991Z,98384.89
2022-09-28T07:07:03.658Z,98388.85
2022-09-28T07:08:36.315Z,98390.59
2022-09-28T07:10:03.294Z,98389.84
2022-09-28T07:11:46.780Z,98391.20
2022-09-28T07:13:49.445Z,98389.98
2022-09-28T07:15:01.047Z,98392.60
2022-09-28T07:16:14.900Z,98390.40
2022-09-28T07:17:24.760Z,98391.70
2022-09-28T07:18:33.636Z,98390.27
2022-09-28T07:19:41.959Z,98388.58
2022-09-28T07:20:54.596Z,98388.09
2022-09-28T07:22:05.560Z,98389.38
2022-09-28T07:23:19.303Z,98391.48
2022-09-28T07:25:01.359Z,98393.97
2022-09-28T07:26:28.887Z,98393.02
2022-09-28T07:27:43.670Z,98393.53
2022-09-28T07:29:25.704Z,98394.52
2022-09-28T07:30:52.610Z,98392.02
2022-09-28T07:32:25.511Z,98394.73
2022-09-28T07:34:04.756Z,98389.91
2022-09-28T07:35:36.359Z,98392.96
2022-09-28T07:36:45.107Z,98390.11
2022-09-28T07:38:00.855Z,98390.38
2022-09-28T07:39:09.665Z,98389.73
2022-09-28T07:40:43.200Z,98387.92
2022-09-28T07:41:59.732Z,98384.54
2022-09-28T07:43:15.088Z,98384.44
2022-09-28T07:44:25.071Z,98383.84
2022-09-28T07:45:40.076Z,98385.02
2022-09-28T07:46:48.157Z,98381.78
2022-09-28T07:48:06.523Z,98380.65
2022-09-28T07:49:34.162Z,98383.55
2022-09-28T07:51:20.927Z,98383.19
2022-09-28T07:52:47.713Z,98382.20
2022-09-28T07:54:08.410Z,98382.08
2022-09-28T07:55:37.078Z,98383.35
2022-09-28T07:56:50.310Z,98384.42
2022-09-28T07:58:18.083Z,98385.64
2022-09-28T07:59:56.425Z,98383.71
2022-09-28T08:01:26.866Z,98383.55
2022-09-28T08:02:36.855Z,98384.89
2022-09-28T08:03:47.106Z,98381.48
2022-09-28T08:04:55.527Z,98383.17
2022-09-28T08:06:06.658Z,98383.14
2022-09-28T08:07:23.708Z,98384.00
2022-09-28T08:08:45.712Z,98385.27
2022-09-28T08:09:56.175Z,98383.89
2022-09-28T08:11:12.904Z,98384.34
2022-09-28T08:12:43.782Z,98385.51
2022-09-28T08:14:10.716Z,98382.91
2022-09-28T08:15:38.969Z,98380.55
2022-09-28T08:16:57.982Z,98385.02
2022-09-28T08:18:20.825Z,98384.52
2022-09-28T08:19:49.682Z,98383.45
2022-09-28T08:21:16.192Z,98381.52
2022-09-28T08:22:26.043Z,98381.34
2022-09-28T08:23:37.053Z,98381.53
2022-09-28T08:24:46.098Z,98381.48
2022-09-28T08:25:55.839Z,98382.16
2022-09-28T08:27:04.782Z,98382.52
2022-09-28T08:28:14.927Z,98382.95
2022-09-28T08:29:28.867Z,98384.95
2022-09-28T08:30:58.107Z,98385.26
2022-09-28T08:32:15.572Z,98388.13
2022-09-28T08:33:55.482Z,98386.97
2022-09-28T08:35:22.555Z,98386.94
2022-09-28T08:36:53.770Z,98386.67
2022-09-28T08:38:35.382Z,98383.92
2022-09-28T08:40:27.522Z,98382.39
2022-09-28T08:42:03.820Z,98383.92
2022-09-28T08:43:40.440Z,98384.42
2022-09-28T08:45:22.788Z,98385.08
2022-09-28T08:46:51.309Z,98386.11
2022-09-28T08:49:06.619Z,98383.89
2022-09-28T08:50:55.758Z,98386.58
2022-09-28T08:52:25.183Z,98390.68
2022-09-28T08:54:48.360Z,98388.26
2022-09-28T08:56:10.275Z,98390.38
2022-09-28T08:57:34.034Z,98390.17
2022-09-28T08:58:44.497Z,98386.77
2022-09-28T09:00:02.814Z,98389.42
2022-09-28T09:01:18.279Z,98389.19
2022-09-28T09:02:35.145Z,98389.55
2022-09-28T09:03:57.263Z,98393.10
2022-09-28T09:05:22.152Z,98393.75
2022-09-28T09:06:59.706Z,98392.67
2022-09-28T09:08:41.400Z,98391.67
2022-09-28T09:10:03.741Z,98390.48
2022-09-28T09:11:33.352Z,98391.69
2022-09-28T09:13:02.318Z,98392.17
2022-09-28T09:14:36.222Z,98393.39
2022-09-28T09:15:59.588Z,98391.33
2022-09-28T09:17:54.289Z,98391.96
2022-09-28T09:19:38.596Z,98389.90
2022-09-28T09:21:24.366Z,98388.78
2022-09-28T09:22:37.604Z,98388.39
2022-09-28T09:23:58.213Z,98391.38
2022-09-28T09:25:28.828Z,98388.97
2022-09-28T09:26:41.696Z,98388.14
2022-09-28T09:28:03.952Z,98389.03
2022-09-28T09:29:46.506Z,98389.66
2022-09-28T09:31:13.139Z,98388.81
2022-09-28T09:33:06.734Z,98390.06
2022-09-28T09:34:34.117Z,98387.22
2022-09-28T09:36:41.327Z,98391.20
2022-09-28T09:38:28.622Z,98389.56
2022-09-28T09:40:28.444Z,98387.45
2022-09-28T09:42:12.143Z,98388.52
2022-09-28T09:44:31.607Z,98385.69
2022-09-28T09:46:42.441Z,98389.95
2022-09-28T09:48:06.578Z,98391.95
2022-09-28T09:49:32.107Z,98387.93
2022-09-28T09:50:58.819Z,98389.55
2022-09-28T09:52:28.721Z,98389.17
2022-09-28T09:53:43.639Z,98387.45
2022-09-28T09:54:58.665Z,98391.13
2022-09-28T09:56:20.957Z,98389.77
2022-09-28T09:57:55.057Z,98386.84
2022-09-28T09:59:29.756Z,98384.33
2022-09-28T10:00:47.026Z,98383.88
2022-09-28T10:02:29.966Z,98382.73
2022-09-28T10:04:00.574Z,98381.53
2022-09-28T10:05:15.681Z,98382.95
2022-09-28T10:06:29.736Z,98382.92
2022-09-28T10:07:43.591Z,98381.68
2022-09-28T10:09:14.937Z,98378.00
2022-09-28T10:10:26.765Z,98380.83
2022-09-28T10:11:51.970Z,98380.79
2022-09-28T10:13:01.227Z,98383.94
2022-09-28T10:14:10.772Z,98381.99
2022-09-28T10:15:32.868Z,98382.55
2022-09-28T10:16:51.210Z,98380.20
2022-09-28T10:18:19.063Z,98381.02
2022-09-28T10:19:45.729Z,98379.61
2022-09-28T10:21:25.294Z,98379.08
2022-09-28T10:22:40.048Z,98375.38
2022-09-28T10:23:57.243Z,98373.39
2022-09-28T10:25:12.296Z,98374.31
2022-09-28T10:26:36.436Z,98375.52
2022-09-28T10:27:47.991Z,98375.55
2022-09-28T10:29:20.230Z,98374.20
2022-09-28T10:30:30.359Z,98373.52
2022-09-28T10:31:43.570Z,98374.84
2022-09-28T10:33:03.297Z,98374.91
2022-09-28T10:34:17.168Z,98371.94
2022-09-28T10:35:29.957Z,98370.25
2022-09-28T10:37:00.369Z,98371.16
2022-09-28T10:38:19.427Z,98369.19
2022-09-28T10:39:55.585Z,98368.71
2022-09-28T10:41:12.251Z,98366.63
2022-09-28T10:42:34.417Z,98366.23
2022-09-28T10:43:57.420Z,98363.87
2022-09-28T10:45:11.602Z,98364.88
2022-09-28T10:46:26.752Z,98361.47
2022-09-28T10:47:36.148Z,98362.78
2022-09-28T10:48:53.859Z,98359.29
2022-09-28T10:50:05.883Z,98361.23
2022-09-28T10:51:14.648Z,98360.03
2022-09-28T10:52:32.648Z,98362.18
2022-09-28T10:53:40.974Z,98361.59
2022-09-28T10:55:35.149Z,98359.91
2022-09-28T10:56:43.184Z,98361.69
2022-09-28T10:57:55.412Z,98358.59
2022-09-28T10:59:04.285Z,98360.29
2022-09-28T11:00:39.390Z,98363.15
2022-09-28T11:02:17.060Z,98361.12
2022-09-28T11:03:30.086Z,98359.67
2022-09-28T11:04:43.264Z,98363.11
2022-09-28T11:06:10.362Z,98362.38
2022-09-28T11:07:26.878Z,98362.64
2022-09-28T11:08:44.756Z,98362.89
2022-09-28T11:09:59.194Z,98363.65
2022-09-28T11:11:18.316Z,98362.70
2022-09-28T11:12:40.990Z,98361.48
2022-09-28T11:13:50.984Z,98364.85
2022-09-28T11:15:05.514Z,98363.41
2022-09-28T11:16:27.567Z,98366.65
2022-09-28T11:17:42.130Z,98363.75
2022-09-28T11:18:50.749Z,98367.20
2022-09-28T11:20:04.407Z,98369.17
2022-09-28T11:21:21.274Z,98365.46
2022-09-28T11:22:37.870Z,98362.15
2022-09-28T11:24:11.903Z,98365.55
2022-09-28T11:25:25.751Z,98362.73
2022-09-28T11:26:44.196Z,98368.45
2022-09-28T11:28:08.088Z,98367.48
2022-09-28T11:29:29.045Z,98366.94
2022-09-28T11:31:14.180Z,98370.60
2022-09-28T11:32:48.993Z,98368.00
2022-09-28T11:34:57.580Z,98368.08
2022-09-28T11:36:14.135Z,98371.83
2022-09-28T11:37:36.037Z,98371.59
2022-09-28T11:39:19.998Z,98372.46
2022-09-28T11:40:46.159Z,98375.67
2022-09-28T11:42:14.131Z,98375.54
2022-09-28T11:43:48.406Z,98377.17
2022-09-28T11:45:27.816Z,98377.40
2022-09-28T11:47:12.921Z,98378.90
2022-09-28T11:48:25.033Z,98374.09
2022-09-28T11:49:41.759Z,98377.76
2022-09-28T11:51:01.023Z,98374.96
2022-09-28T11:52:49.437Z,98376.04
2022-09-28T11:53:59.399Z,98374.96
2022-09-28T11:55:34.598Z,98377.88
2022-09-28T11:56:52.393Z,98375.55
2022-09-28T11:58:08.919Z,98374.81
2022-09-28T11:59:41.308Z,98375.54
2022-09-28T12:00:54.739Z,98375.13
2022-09-28T12:02:30.443Z,98377.52
2022-09-28T12:03:50.415Z,98374.89
2022-09-28T12:05:20.863Z,98376.98
2022-09-28T12:06:37.097Z,98374.68
2022-09-28T12:07:50.476Z,98372.97
2022-09-28T12:09:25.628Z,98373.08
2022-09-28T12:11:11.521Z,98373.23
2022-09-28T12:13:04.644Z,98369.21
2022-09-28T12:14:25.843Z,98371.08
2022-09-28T12:16:27.235Z,98371.98
2022-09-28T12:17:55.523Z,98374.61
2022-09-28T12:19:11.129Z,98373.56
2022-09-28T12:20:24.264Z,98371.73
2022-09-28T12:21:40.623Z,98376.20
2022-09-28T12:23:10.629Z,98375.17
2022-09-28T12:24:40.417Z,98376.80
2022-09-28T12:26:11.993Z,98381.36
2022-09-28T12:27:30.807Z,98381.30
2022-09-28T12:28:50.008Z,98384.06
2022-09-28T12:30:14.177Z,98385.16
2022-09-28T12:31:24.331Z,98389.77
2022-09-28T12:32:43.871Z,98386.86
2022-09-28T12:33:52.890Z,98388.04
2022-09-28T12:35:02.135Z,98387.73
2022-09-28T12:36:44.589Z,98384.84
2022-09-28T12:38:10.855Z,98382.42
2022-09-28T12:39:40.815Z,98387.91
2022-09-28T12:40:59.926Z,98389.73
2022-09-28T12:42:49.421Z,98391.70
2022-09-28T12:44:15.071Z,98392.50
2022-09-28T12:46:12.001Z,98395.38
2022-09-28T12:47:47.419Z,98398.56
2022-09-28T12:51:04.939Z,98397.66
2022-09-28T12:52:47.047Z,98400.52
2022-09-28T12:54:04.719Z,98401.06
2022-09-28T12:55:18.831Z,98403.84
2022-09-28T12:57:17.905Z,98404.77
2022-09-28T12:58:38.754Z,98407.54
2022-09-28T13:00:06.735Z,98408.27
2022-09-28T13:01:25.156Z,98410.13
2022-09-28T13:03:13.595Z,98409.25
2022-09-28T13:04:39.303Z,98412.55
2022-09-28T13:06:08.965Z,98414.76
2022-09-28T13:07:26.489Z,98412.48
2022-09-28T13:08:59.141Z,98414.61
2022-09-28T13:10:34.682Z,98415.55
2022-09-28T13:12:05.681Z,98415.52
2022-09-28T13:13:49.477Z,98418.27
2022-09-28T13:15:11.142Z,98419.55
2022-09-28T13:16:32.351Z,98418.11
2022-09-28T13:17:50.612Z,98419.14
2022-09-28T13:19:18.267Z,98418.86
2022-09-28T13:20:42.453Z,98417.95
2022-09-28T13:21:57.326Z,98420.97
2022-09-28T13:23:12.678Z,98425.70
2022-09-28T13:24:32.548Z,98427.07
2022-09-28T13:25:44.224Z,98431.69
2022-09-28T13:26:52.381Z,98430.45
2022-09-28T13:28:04.092Z,98431.52
2022-09-28T13:29:20.456Z,98432.06
2022-09-28T13:30:29.797Z,98429.97
2022-09-28T13:31:46.836Z,98429.60
2022-09-28T13:32:55.530Z,98433.40
2022-09-28T13:34:05.176Z,98436.48
2022-09-28T13:35:18.045Z,98436.81
2022-09-28T13:36:34.989Z,98440.24
2022-09-28T13:37:43.558Z,98438.54
2022-09-28T13:38:51.247Z,98435.86
2022-09-28T13:40:00.919Z,98441.08
2022-09-28T13:41:11.309Z,98443.83
2022-09-28T13:42:47.361Z,98444.35
2022-09-28T13:44:14.130Z,98442.84
2022-09-28T13:45:28.928Z,98442.08
2022-09-28T13:47:12.681Z,98440.57
2022-09-28T13:48:43.826Z,98443.05
2022-09-28T13:50:05.231Z,98443.95
2022-09-28T13:51:18.085Z,98442.96
2022-09-28T13:52:46.649Z,98443.77
2022-09-28T13:54:06.152Z,98446.82
2022-09-28T13:55:35.108Z,98445.00
2022-09-28T13:57:16.552Z,98449.22
2022-09-28T13:58:40.352Z,98450.58
2022-09-28T14:00:14.206Z,98447.49
2022-09-28T14:01:26.216Z,98448.41
2022-09-28T14:02:43.101Z,98449.17
2022-09-28T14:04:23.452Z,98449.98
2022-09-28T14:05:43.430Z,98450.71
2022-09-28T14:06:58.948Z,98450.96
2022-09-28T14:08:22.954Z,98457.75
2022-09-28T14:09:47.326Z,98455.97
2022-09-28T14:10:59.759Z,98454.77
2022-09-28T14:12:37.286Z,98455.81
2022-09-28T14:13:45.884Z,98453.98
2022-09-28T14:14:54.156Z,98453.04
2022-09-28T14:16:25.595Z,98456.41
2022-09-28T14:18:03.827Z,98458.71
2022-09-28T14:19:18.971Z,98456.34
2022-09-28T14:20:28.400Z,98459.59
2022-09-28T14:21:50.273Z,98462.67
2022-09-28T14:23:31.208Z,98462.81
2022-09-28T14:24:54.399Z,98462.19
2022-09-28T14:26:17.362Z,98462.04
2022-09-28T14:28:03.383Z,98462.27
2022-09-28T14:29:31.485Z,98459.29
2022-09-28T14:30:46.614Z,98462.55
2022-09-28T14:31:55.123Z,98463.39
2022-09-28T14:33:04.669Z,98465.92
2022-09-28T14:34:34.238Z,98461.03
2022-09-28T14:35:43.010Z,98461.84
2022-09-28T14:37:13.484Z,98463.59
2022-09-28T14:39:05.359Z,98465.39
2022-09-28T14:40:39.205Z,98463.05
2022-09-28T14:41:47.830Z,98467.73
2022-09-28T14:43:31.299Z,98462.37
2022-09-28T14:45:06.708Z,98461.20
2022-09-28T14:46:17.686Z,98464.85
2022-09-28T14:47:53.385Z,98466.08
2022-09-28T14:49:07.101Z,98465.95
2022-09-28T14:50:29.284Z,98466.29
2022-09-28T14:51:39.876Z,98467.56
2022-09-28T14:52:50.508Z,98471.09
2022-09-28T14:54:02.665Z,98472.29
2022-09-28T14:55:18.338Z,98472.10
2022-09-28T14:56:31.851Z,98473.27
2022-09-28T14:57:42.900Z,98474.15
2022-09-28T14:58:55.337Z,98474.52
2022-09-28T15:00:03.845Z,98477.73
2022-09-28T15:01:19.297Z,98476.40
2022-09-28T15:02:33.274Z,98476.92
2022-09-28T15:03:41.257Z,98481.05
2022-09-28T15:04:53.769Z,98483.30
2022-09-28T15:06:03.488Z,98483.36
2022-09-28T15:07:32.125Z,98487.66
2022-09-28T15:08:41.009Z,98488.27
2022-09-28T15:09:52.328Z,98492.79
2022-09-28T15:11:00.552Z,98493.01
2022-09-28T15:12:18.568Z,98495.59
2022-09-28T15:13:30.745Z,98492.81
2022-09-28T15:15:04.437Z,98496.52
2022-09-28T15:16:15.159Z,98494.72
2022-09-28T15:17:29.628Z,98495.15
2022-09-28T15:18:53.368Z,98493.27
2022-09-28T15:20:19.751Z,98493.86
2022-09-28T15:21:43.901Z,98499.58
2022-09-28T15:22:59.061Z,98501.35
2022-09-28T15:24:28.651Z,98499.02
2022-09-28T15:25:43.975Z,98503.47
2022-09-28T15:26:54.987Z,98505.95
2022-09-28T15:28:19.578Z,98503.48
2022-09-28T15:29:35.422Z,98502.41
2022-09-28T15:30:47.087Z,98501.60
2022-09-28T15:31:55.510Z,98501.59
2022-09-28T15:33:23.967Z,98503.39
2022-09-28T15:34:54.571Z,98502.36